Impacts TAF Board
For situational awareness. Not to be used for flight planning purposes.
IDs:

KORD - Chicago/O'Hare Intl, IL, US

Issued at 2320 UTC 15 Oct 2018
Updated at 0221 UTC 16 Oct 2018
Potential Impact None Slight Moderate High
Time0151Z 16/03Z 16/04Z 16/05Z 16/06Z 16/07Z 16/08Z 16/09Z 16/10Z 16/11Z 16/12Z 16/13Z 16/14Z 16/15Z>>
Type OBS PRVL PRVL PRVL PRVL PRVL PRVL PRVL PRVL PRVL PRVL PRVL PRVL PRVL
VIS 10 >6 >6 >6 >6 >6 >6 >6 >6 >6 >6 >6 >6 >6
CIG -- -- -- -- -- -- -- -- -- -- -- -- -- --
Cover CLR SKC SKC SKC SKC SKC SKC SKC SKC SKC SKC SKC SKC FEW
FltCat VFR VFR VFR VFR VFR VFR VFR VFR VFR VFR VFR VFR VFR VFR
WX -- -- -- -- -- -- -- -- -- -- -- -- -- --
WDir 260 260 260 260 260 260 260 260 260 260 260 230 230 240
WSpd 3 8 8 8 8 8 8 8 8 8 8 12 12 17
WGst -- -- -- -- -- -- -- -- -- -- -- 20 20 26
Raw TAF
KORD 152320Z 1600/1706 26008KT P6SM SKC
  FM161300 23012G20KT P6SM SKC
  FM161500 24017G26KT P6SM FEW150
  FM162300 26013G20KT P6SM SCT150
  FM170300 29010KT P6SM FEW040 SCT150


Raw METAR
KORD 160151Z 26003KT 10SM CLR 04/M02 A3023 RMK AO2 SLP244 T00441017
KORD 160051Z 27005KT 10SM CLR 06/M02 A3024 RMK AO2 SLP244 T00561022
KORD 152351Z 28006KT 10SM CLR 07/M03 A3023 RMK AO2 SLP241 T00671028 10089 20067 53016

METAR Board
Radar Display
Forecast Discussion
For situational awareness. Not to be used for flight planning purposes.